EZY85TF EGCC-LEPA
Flight info
| Callsign | EZY85TF |
|---|---|
| Flight time | 2h 15m |
| Altitude | 37000 |
| Route | LISTO P18 TELBA L151 KIDLI UN859 SOPIL DCT BALAN DCT EVPOK DCT NARAK DCT GAI DCT LOMRA DCT ROCAN DCT IBRAP DCT LUKEV DCT LORES |
| Aircraft | A320/M-SDE3FGHIRWY/LB1 |
Departure
| Time | 2026-05-04 14:42 |
|---|---|
| Airport | Manchester Airport (EGCC) |
Arrival
| Time | 2026-05-04 16:58 |
|---|---|
| Airport | Palma de Mallorca Airport (LEPA) |
| Time | Latitude | Longitude | Altitude | Speed | Heading |
|---|---|---|---|---|---|
| 2026-05-04 14:14 | 53.36944 | -2.28691 | 255 ft | 0 kts | 134° |
| 2026-05-04 14:30 | 53.36970 | -2.28726 | 255 ft | 4 kts | 162° |
| 2026-05-04 14:31 | 53.36994 | -2.28727 | 255 ft | 4 kts | 219° |
| 2026-05-04 14:31 | 53.37001 | -2.28717 | 255 ft | 0 kts | 224° |
| 2026-05-04 14:33 | 53.36989 | -2.28736 | 255 ft | 7 kts | 224° |
| 2026-05-04 14:33 | 53.36957 | -2.28788 | 255 ft | 6 kts | 224° |
| 2026-05-04 14:33 | 53.36929 | -2.28835 | 255 ft | 7 kts | 224° |
| 2026-05-04 14:33 | 53.36896 | -2.28889 | 255 ft | 7 kts | 224° |
| 2026-05-04 14:34 | 53.36848 | -2.28967 | 255 ft | 12 kts | 224° |
| 2026-05-04 14:34 | 53.36767 | -2.29043 | 255 ft | 14 kts | 192° |
| 2026-05-04 14:34 | 53.36691 | -2.28952 | 255 ft | 14 kts | 134° |
| 2026-05-04 14:34 | 53.36613 | -2.28866 | 255 ft | 14 kts | 143° |
| 2026-05-04 14:35 | 53.36569 | -2.28728 | 255 ft | 13 kts | 112° |
| 2026-05-04 14:35 | 53.36522 | -2.28617 | 255 ft | 11 kts | 134° |
| 2026-05-04 14:35 | 53.36464 | -2.28521 | 255 ft | 12 kts | 135° |
| 2026-05-04 14:35 | 53.36407 | -2.28425 | 255 ft | 12 kts | 134° |
| 2026-05-04 14:36 | 53.36348 | -2.28323 | 255 ft | 12 kts | 134° |
| 2026-05-04 14:36 | 53.36281 | -2.28210 | 255 ft | 14 kts | 134° |
| 2026-05-04 14:36 | 53.36231 | -2.28124 | 255 ft | 17 kts | 134° |
| 2026-05-04 14:36 | 53.36147 | -2.27979 | 255 ft | 18 kts | 134° |
| 2026-05-04 14:37 | 53.36048 | -2.27845 | 255 ft | 19 kts | 161° |
| 2026-05-04 14:37 | 53.35921 | -2.27849 | 255 ft | 18 kts | 185° |
| 2026-05-04 14:37 | 53.35850 | -2.27812 | 255 ft | 7 kts | 143° |
| 2026-05-04 14:37 | 53.35821 | -2.27749 | 255 ft | 9 kts | 127° |
| 2026-05-04 14:38 | 53.35766 | -2.27663 | 255 ft | 10 kts | 153° |
| 2026-05-04 14:38 | 53.35704 | -2.27633 | 256 ft | 8 kts | 164° |
| 2026-05-04 14:38 | 53.35668 | -2.27589 | 256 ft | 5 kts | 139° |
| 2026-05-04 14:38 | 53.35642 | -2.27556 | 256 ft | 4 kts | 143° |
| 2026-05-04 14:39 | 53.35623 | -2.27531 | 256 ft | 4 kts | 142° |
| 2026-05-04 14:39 | 53.35572 | -2.27460 | 256 ft | 10 kts | 140° |
| 2026-05-04 14:39 | 53.35502 | -2.27362 | 255 ft | 16 kts | 140° |
| 2026-05-04 14:40 | 53.35276 | -2.27205 | 246 ft | 18 kts | 190° |
| 2026-05-04 14:40 | 53.35160 | -2.27248 | 244 ft | 15 kts | 192° |
| 2026-05-04 14:40 | 53.35142 | -2.27254 | 244 ft | 0 kts | 192° |
| 2026-05-04 14:40 | 53.35140 | -2.27255 | 244 ft | 4 kts | 192° |
| 2026-05-04 14:41 | 53.35086 | -2.27273 | 243 ft | 8 kts | 191° |
| 2026-05-04 14:41 | 53.35031 | -2.27294 | 242 ft | 8 kts | 199° |
| 2026-05-04 14:41 | 53.34916 | -2.27510 | 239 ft | 36 kts | 230° |
| 2026-05-04 14:42 | 53.34026 | -2.29351 | 220 ft | 156 kts | 231° |
| 2026-05-04 14:42 | 53.33329 | -2.30850 | 750 ft | 159 kts | 234° |
| 2026-05-04 14:42 | 53.32690 | -2.32377 | 1482 ft | 165 kts | 235° |
| 2026-05-04 14:43 | 53.32145 | -2.34203 | 1752 ft | 189 kts | 264° |
| 2026-05-04 14:43 | 53.32329 | -2.36466 | 2078 ft | 209 kts | 288° |
| 2026-05-04 14:43 | 53.32813 | -2.38940 | 2405 ft | 237 kts | 286° |
| 2026-05-04 14:43 | 53.32923 | -2.41770 | 2912 ft | 255 kts | 254° |
| 2026-05-04 14:44 | 53.31967 | -2.44255 | 3711 ft | 261 kts | 218° |
| 2026-05-04 14:44 | 53.30310 | -2.45479 | 4595 ft | 265 kts | 192° |
| 2026-05-04 14:44 | 53.28467 | -2.45845 | 5489 ft | 269 kts | 179° |
| 2026-05-04 14:44 | 53.26662 | -2.45043 | 6335 ft | 274 kts | 151° |
| 2026-05-04 14:45 | 53.25070 | -2.43267 | 7165 ft | 277 kts | 147° |
| 2026-05-04 14:45 | 53.23415 | -2.41585 | 7984 ft | 280 kts | 151° |
| 2026-05-04 14:45 | 53.21685 | -2.40027 | 8789 ft | 284 kts | 153° |
| 2026-05-04 14:45 | 53.19912 | -2.38508 | 9596 ft | 289 kts | 153° |
| 2026-05-04 14:46 | 53.18104 | -2.36979 | 10342 ft | 295 kts | 153° |
| 2026-05-04 14:46 | 53.16207 | -2.35366 | 10595 ft | 318 kts | 153° |
| 2026-05-04 14:46 | 53.14165 | -2.33614 | 10802 ft | 341 kts | 153° |
| 2026-05-04 14:46 | 53.11990 | -2.31733 | 10948 ft | 364 kts | 153° |
| 2026-05-04 14:47 | 53.09677 | -2.29720 | 11070 ft | 385 kts | 153° |
| 2026-05-04 14:47 | 53.07263 | -2.27613 | 11425 ft | 397 kts | 153° |
| 2026-05-04 14:47 | 53.04802 | -2.25466 | 12013 ft | 401 kts | 153° |
| 2026-05-04 14:47 | 53.03039 | -2.23928 | 12448 ft | 403 kts | 153° |
| 2026-05-04 14:48 | 53.01976 | -2.23002 | 12706 ft | 405 kts | 153° |
| 2026-05-04 14:48 | 52.99474 | -2.20828 | 13301 ft | 408 kts | 153° |
| 2026-05-04 14:48 | 52.96947 | -2.18639 | 13907 ft | 411 kts | 153° |
| 2026-05-04 14:48 | 52.94401 | -2.16435 | 14427 ft | 414 kts | 153° |
| 2026-05-04 14:49 | 52.91841 | -2.14220 | 14951 ft | 416 kts | 153° |
| 2026-05-04 14:49 | 52.89267 | -2.11991 | 15457 ft | 419 kts | 153° |
| 2026-05-04 14:49 | 52.86680 | -2.09755 | 15976 ft | 421 kts | 153° |
| 2026-05-04 14:49 | 52.84073 | -2.07507 | 16464 ft | 424 kts | 153° |
| 2026-05-04 14:50 | 52.81451 | -2.05250 | 16969 ft | 426 kts | 153° |
| 2026-05-04 14:50 | 52.78813 | -2.02988 | 17459 ft | 428 kts | 153° |
| 2026-05-04 14:50 | 52.76161 | -2.00715 | 17948 ft | 431 kts | 153° |
| 2026-05-04 14:50 | 52.73494 | -1.98434 | 18411 ft | 433 kts | 153° |
| 2026-05-04 14:51 | 52.70810 | -1.96146 | 18819 ft | 435 kts | 153° |
| 2026-05-04 14:51 | 52.68115 | -1.93853 | 19223 ft | 437 kts | 153° |
| 2026-05-04 14:51 | 52.65443 | -1.91578 | 19610 ft | 439 kts | 153° |
| 2026-05-04 14:51 | 52.62727 | -1.89262 | 19994 ft | 441 kts | 153° |
| 2026-05-04 14:52 | 52.60000 | -1.86936 | 20373 ft | 443 kts | 153° |
| 2026-05-04 14:52 | 52.57262 | -1.84604 | 20743 ft | 445 kts | 153° |
| 2026-05-04 14:52 | 52.54506 | -1.82265 | 21107 ft | 446 kts | 153° |
| 2026-05-04 14:52 | 52.51742 | -1.79923 | 21470 ft | 448 kts | 153° |
| 2026-05-04 14:53 | 52.48967 | -1.77580 | 21828 ft | 450 kts | 153° |
| 2026-05-04 14:53 | 52.46176 | -1.75229 | 22175 ft | 451 kts | 153° |
| 2026-05-04 14:53 | 52.43381 | -1.72875 | 22512 ft | 453 kts | 153° |
| 2026-05-04 14:53 | 52.40572 | -1.70510 | 22857 ft | 454 kts | 153° |
| 2026-05-04 14:54 | 52.37755 | -1.68141 | 23173 ft | 456 kts | 153° |
| 2026-05-04 14:54 | 52.34869 | -1.65987 | 23488 ft | 457 kts | 160° |
| 2026-05-04 14:54 | 52.31846 | -1.64350 | 23767 ft | 458 kts | 162° |
| 2026-05-04 14:54 | 52.28802 | -1.62761 | 24035 ft | 460 kts | 163° |
| 2026-05-04 14:55 | 52.25759 | -1.61183 | 24403 ft | 458 kts | 163° |
| 2026-05-04 14:55 | 52.22721 | -1.59614 | 24764 ft | 457 kts | 163° |
| 2026-05-04 14:55 | 52.19688 | -1.58045 | 25139 ft | 457 kts | 163° |
| 2026-05-04 14:55 | 52.16665 | -1.56478 | 25515 ft | 456 kts | 163° |
| 2026-05-04 14:56 | 52.13645 | -1.54910 | 25906 ft | 455 kts | 163° |
| 2026-05-04 14:56 | 52.10633 | -1.53346 | 26306 ft | 454 kts | 163° |
| 2026-05-04 14:56 | 52.07629 | -1.51787 | 26699 ft | 453 kts | 163° |
| 2026-05-04 14:56 | 52.04590 | -1.50213 | 27103 ft | 452 kts | 163° |
| 2026-05-04 14:57 | 52.01641 | -1.48688 | 27506 ft | 450 kts | 163° |
| 2026-05-04 14:57 | 51.98660 | -1.47149 | 27925 ft | 449 kts | 163° |
| 2026-05-04 14:57 | 51.95687 | -1.45617 | 28347 ft | 447 kts | 163° |
| 2026-05-04 14:57 | 51.92726 | -1.44095 | 28785 ft | 446 kts | 163° |
| 2026-05-04 14:58 | 51.89771 | -1.42582 | 29225 ft | 444 kts | 163° |
| 2026-05-04 14:58 | 51.86829 | -1.41080 | 29665 ft | 443 kts | 164° |
| 2026-05-04 14:58 | 51.83897 | -1.39584 | 30101 ft | 441 kts | 164° |
| 2026-05-04 14:58 | 51.80979 | -1.38099 | 30479 ft | 439 kts | 164° |
| 2026-05-04 14:59 | 51.78068 | -1.36621 | 30827 ft | 438 kts | 164° |
| 2026-05-04 14:59 | 51.75161 | -1.35142 | 31167 ft | 437 kts | 163° |
| 2026-05-04 14:59 | 51.69367 | -1.32189 | 31833 ft | 436 kts | 163° |
| 2026-05-04 15:00 | 51.66473 | -1.30721 | 32137 ft | 435 kts | 163° |
| 2026-05-04 15:00 | 51.63584 | -1.29259 | 32454 ft | 435 kts | 163° |
| 2026-05-04 15:00 | 51.60698 | -1.27796 | 32767 ft | 435 kts | 163° |
| 2026-05-04 15:01 | 51.54932 | -1.24881 | 33381 ft | 434 kts | 163° |
| 2026-05-04 15:01 | 51.52049 | -1.23432 | 33694 ft | 434 kts | 163° |
| 2026-05-04 15:01 | 51.49203 | -1.21937 | 33999 ft | 434 kts | 159° |
| 2026-05-04 15:01 | 51.46440 | -1.19980 | 34254 ft | 435 kts | 156° |
| 2026-05-04 15:02 | 51.43692 | -1.17949 | 34507 ft | 435 kts | 156° |
| 2026-05-04 15:02 | 51.40947 | -1.15924 | 34755 ft | 435 kts | 156° |
| 2026-05-04 15:02 | 51.38196 | -1.13900 | 34977 ft | 435 kts | 156° |
| 2026-05-04 15:02 | 51.35448 | -1.11875 | 35211 ft | 435 kts | 156° |
| 2026-05-04 15:03 | 51.32698 | -1.09857 | 35436 ft | 435 kts | 156° |
| 2026-05-04 15:03 | 51.29948 | -1.07844 | 35658 ft | 435 kts | 156° |
| 2026-05-04 15:03 | 51.27195 | -1.05834 | 35867 ft | 435 kts | 156° |
| 2026-05-04 15:03 | 51.24442 | -1.03827 | 36103 ft | 435 kts | 156° |
| 2026-05-04 15:04 | 51.21690 | -1.01820 | 36311 ft | 435 kts | 156° |
| 2026-05-04 15:04 | 51.18936 | -0.99817 | 36518 ft | 435 kts | 156° |
| 2026-05-04 15:04 | 51.16178 | -0.97811 | 36710 ft | 435 kts | 156° |
| 2026-05-04 15:04 | 51.13423 | -0.95811 | 36908 ft | 436 kts | 156° |
| 2026-05-04 15:05 | 51.07878 | -0.91791 | 37001 ft | 442 kts | 156° |
| 2026-05-04 15:05 | 51.02256 | -0.87722 | 36999 ft | 445 kts | 156° |
| 2026-05-04 15:06 | 50.96621 | -0.83645 | 37002 ft | 445 kts | 156° |
| 2026-05-04 15:07 | 50.88166 | -0.77562 | 37002 ft | 445 kts | 156° |
| 2026-05-04 15:07 | 50.82739 | -0.72853 | 37008 ft | 446 kts | 148° |
| 2026-05-04 15:08 | 50.77516 | -0.67530 | 37010 ft | 447 kts | 148° |
| 2026-05-04 15:08 | 50.72325 | -0.62246 | 37014 ft | 447 kts | 148° |
| 2026-05-04 15:09 | 50.67097 | -0.56937 | 37017 ft | 447 kts | 148° |
| 2026-05-04 15:09 | 50.61858 | -0.51646 | 37013 ft | 447 kts | 149° |
| 2026-05-04 15:10 | 50.53990 | -0.43738 | 37020 ft | 447 kts | 149° |
| 2026-05-04 15:11 | 50.46124 | -0.35838 | 37018 ft | 447 kts | 149° |
| 2026-05-04 15:11 | 50.40872 | -0.30598 | 37012 ft | 447 kts | 149° |
| 2026-05-04 15:12 | 50.35585 | -0.25324 | 37015 ft | 448 kts | 149° |
| 2026-05-04 15:12 | 50.30330 | -0.20093 | 37013 ft | 448 kts | 149° |
| 2026-05-04 15:13 | 50.25072 | -0.14872 | 37007 ft | 448 kts | 149° |
| 2026-05-04 15:13 | 50.19811 | -0.09669 | 37002 ft | 448 kts | 149° |
| 2026-05-04 15:14 | 50.14539 | -0.04479 | 37004 ft | 448 kts | 149° |
| 2026-05-04 15:14 | 50.09091 | 0.00164 | 36999 ft | 445 kts | 161° |
| 2026-05-04 15:15 | 50.03133 | 0.02704 | 37002 ft | 444 kts | 167° |
| 2026-05-04 15:15 | 49.97140 | 0.05065 | 37000 ft | 444 kts | 167° |
| 2026-05-04 15:16 | 49.88151 | 0.08602 | 37004 ft | 444 kts | 167° |
| 2026-05-04 15:17 | 49.79154 | 0.12113 | 37009 ft | 444 kts | 167° |
| 2026-05-04 15:17 | 49.70160 | 0.15607 | 37014 ft | 444 kts | 167° |
| 2026-05-04 15:18 | 49.64167 | 0.17961 | 37017 ft | 444 kts | 167° |
| 2026-05-04 15:19 | 49.56209 | 0.21193 | 37019 ft | 444 kts | 167° |
| 2026-05-04 15:19 | 49.47241 | 0.24819 | 37018 ft | 444 kts | 167° |
| 2026-05-04 15:20 | 49.41261 | 0.27206 | 37019 ft | 444 kts | 167° |
| 2026-05-04 15:20 | 49.35284 | 0.29596 | 37018 ft | 444 kts | 167° |
| 2026-05-04 15:21 | 49.29310 | 0.31985 | 37018 ft | 444 kts | 167° |
| 2026-05-04 15:22 | 49.20381 | 0.35749 | 37010 ft | 443 kts | 166° |
| 2026-05-04 15:22 | 49.11470 | 0.39544 | 37000 ft | 443 kts | 166° |
| 2026-05-04 15:23 | 49.05525 | 0.42024 | 36995 ft | 443 kts | 166° |
| 2026-05-04 15:23 | 48.99587 | 0.44497 | 36991 ft | 442 kts | 166° |
| 2026-05-04 15:24 | 48.87722 | 0.49439 | 36991 ft | 442 kts | 166° |
| 2026-05-04 15:25 | 48.81791 | 0.51889 | 36995 ft | 442 kts | 167° |
| 2026-05-04 15:26 | 48.72891 | 0.55500 | 36987 ft | 441 kts | 167° |
| 2026-05-04 15:26 | 48.63980 | 0.58949 | 36979 ft | 440 kts | 167° |
| 2026-05-04 15:27 | 48.55078 | 0.62404 | 36983 ft | 440 kts | 167° |
| 2026-05-04 15:28 | 48.46190 | 0.65922 | 36983 ft | 440 kts | 167° |
| 2026-05-04 15:29 | 48.37331 | 0.69581 | 36976 ft | 440 kts | 167° |
| 2026-05-04 15:30 | 48.16651 | 0.77865 | 36970 ft | 439 kts | 167° |
| 2026-05-04 15:31 | 48.07789 | 0.81333 | 36963 ft | 439 kts | 167° |
| 2026-05-04 15:32 | 47.93025 | 0.87101 | 36959 ft | 438 kts | 168° |
| 2026-05-04 15:34 | 47.78273 | 0.92829 | 36951 ft | 438 kts | 168° |
| 2026-05-04 15:34 | 47.69430 | 0.96242 | 36951 ft | 437 kts | 168° |
| 2026-05-04 15:35 | 47.60604 | 0.99657 | 36954 ft | 437 kts | 168° |
| 2026-05-04 15:36 | 47.51779 | 1.03039 | 36955 ft | 436 kts | 168° |
| 2026-05-04 15:36 | 47.45903 | 1.05288 | 36955 ft | 436 kts | 168° |
| 2026-05-04 15:37 | 47.39949 | 1.06386 | 36955 ft | 430 kts | 183° |
| 2026-05-04 15:37 | 47.33967 | 1.06230 | 36951 ft | 430 kts | 183° |
| 2026-05-04 15:38 | 47.27985 | 1.06090 | 36952 ft | 430 kts | 182° |
| 2026-05-04 15:38 | 47.22002 | 1.05961 | 36949 ft | 430 kts | 183° |
| 2026-05-04 15:39 | 47.16027 | 1.05818 | 36944 ft | 429 kts | 183° |
| 2026-05-04 15:40 | 47.07073 | 1.05599 | 36946 ft | 429 kts | 182° |
| 2026-05-04 15:40 | 47.01109 | 1.05461 | 36942 ft | 428 kts | 183° |
| 2026-05-04 15:41 | 46.95158 | 1.05228 | 36950 ft | 428 kts | 184° |
| 2026-05-04 15:41 | 46.89213 | 1.04934 | 36948 ft | 427 kts | 184° |
| 2026-05-04 15:42 | 46.83271 | 1.04664 | 36948 ft | 427 kts | 184° |
| 2026-05-04 15:42 | 46.77333 | 1.04419 | 36942 ft | 427 kts | 184° |
| 2026-05-04 15:43 | 46.71398 | 1.04167 | 36942 ft | 427 kts | 184° |
| 2026-05-04 15:43 | 46.65465 | 1.03916 | 36942 ft | 426 kts | 184° |
| 2026-05-04 15:44 | 46.59535 | 1.03666 | 36937 ft | 426 kts | 184° |
| 2026-05-04 15:44 | 46.53609 | 1.03417 | 36939 ft | 426 kts | 182° |
| 2026-05-04 15:45 | 46.47716 | 1.04623 | 36936 ft | 431 kts | 170° |
| 2026-05-04 15:45 | 46.41882 | 1.06589 | 36933 ft | 430 kts | 170° |
| 2026-05-04 15:46 | 46.36043 | 1.08534 | 36924 ft | 430 kts | 170° |
| 2026-05-04 15:46 | 46.30211 | 1.10477 | 36927 ft | 430 kts | 170° |
| 2026-05-04 15:47 | 46.24384 | 1.12418 | 36930 ft | 430 kts | 170° |
| 2026-05-04 15:47 | 46.18560 | 1.14355 | 36927 ft | 429 kts | 170° |
| 2026-05-04 15:48 | 46.12742 | 1.16279 | 36938 ft | 429 kts | 170° |
| 2026-05-04 15:48 | 46.04030 | 1.19153 | 36939 ft | 428 kts | 170° |
| 2026-05-04 15:49 | 45.98233 | 1.21067 | 36930 ft | 427 kts | 170° |
| 2026-05-04 15:49 | 45.92440 | 1.22973 | 36928 ft | 427 kts | 170° |
| 2026-05-04 15:50 | 45.86648 | 1.24868 | 36927 ft | 427 kts | 171° |
| 2026-05-04 15:50 | 45.80862 | 1.26755 | 36925 ft | 426 kts | 171° |
| 2026-05-04 15:51 | 45.75077 | 1.28640 | 36928 ft | 426 kts | 171° |
| 2026-05-04 15:51 | 45.69292 | 1.30522 | 36929 ft | 426 kts | 171° |
| 2026-05-04 15:52 | 45.63508 | 1.32401 | 36930 ft | 426 kts | 171° |
| 2026-05-04 15:52 | 45.57725 | 1.34278 | 36929 ft | 426 kts | 171° |
| 2026-05-04 15:53 | 45.51936 | 1.36152 | 36930 ft | 427 kts | 171° |
| 2026-05-04 15:53 | 45.46149 | 1.38030 | 36932 ft | 426 kts | 170° |
| 2026-05-04 15:54 | 45.40363 | 1.39902 | 36928 ft | 427 kts | 171° |
| 2026-05-04 15:54 | 45.34568 | 1.41758 | 36926 ft | 427 kts | 171° |
| 2026-05-04 15:55 | 45.28773 | 1.43614 | 36925 ft | 427 kts | 171° |
| 2026-05-04 15:55 | 45.23015 | 1.45460 | 36924 ft | 427 kts | 171° |
| 2026-05-04 15:56 | 45.17220 | 1.47320 | 36921 ft | 427 kts | 171° |
| 2026-05-04 15:56 | 45.11424 | 1.49169 | 36913 ft | 427 kts | 171° |
| 2026-05-04 15:57 | 45.05590 | 1.51028 | 36916 ft | 427 kts | 171° |
| 2026-05-04 15:57 | 44.99830 | 1.52855 | 36916 ft | 427 kts | 171° |
| 2026-05-04 15:58 | 44.94036 | 1.54691 | 36913 ft | 427 kts | 171° |
| 2026-05-04 15:58 | 44.88244 | 1.56521 | 36913 ft | 426 kts | 171° |
| 2026-05-04 15:59 | 44.82455 | 1.58347 | 36914 ft | 426 kts | 171° |
| 2026-05-04 15:59 | 44.76663 | 1.60173 | 36918 ft | 427 kts | 171° |
| 2026-05-04 16:00 | 44.70869 | 1.62000 | 36918 ft | 427 kts | 171° |
| 2026-05-04 16:00 | 44.66052 | 1.63518 | 36916 ft | 427 kts | 171° |
| 2026-05-04 16:01 | 44.60248 | 1.65330 | 36921 ft | 428 kts | 172° |
| 2026-05-04 16:01 | 44.54435 | 1.67134 | 36936 ft | 428 kts | 172° |
| 2026-05-04 16:02 | 44.48614 | 1.68948 | 36926 ft | 429 kts | 172° |
| 2026-05-04 16:03 | 44.39875 | 1.71674 | 36922 ft | 429 kts | 172° |
| 2026-05-04 16:03 | 44.34047 | 1.73482 | 36927 ft | 429 kts | 172° |
| 2026-05-04 16:04 | 44.28216 | 1.75262 | 36927 ft | 428 kts | 173° |
| 2026-05-04 16:04 | 44.19425 | 1.77251 | 36927 ft | 426 kts | 176° |
| 2026-05-04 16:05 | 44.13558 | 1.78430 | 36925 ft | 426 kts | 176° |
| 2026-05-04 16:06 | 44.04765 | 1.80329 | 36926 ft | 426 kts | 175° |
| 2026-05-04 16:07 | 43.93053 | 1.82815 | 36926 ft | 424 kts | 178° |
| 2026-05-04 16:08 | 43.81288 | 1.83839 | 36927 ft | 422 kts | 181° |
| 2026-05-04 16:09 | 43.66648 | 1.85194 | 36931 ft | 422 kts | 180° |
| 2026-05-04 16:10 | 43.54949 | 1.86331 | 36926 ft | 421 kts | 180° |
| 2026-05-04 16:11 | 43.43263 | 1.87450 | 36918 ft | 421 kts | 181° |
| 2026-05-04 16:12 | 43.25744 | 1.89130 | 36902 ft | 421 kts | 181° |
| 2026-05-04 16:13 | 43.14067 | 1.90248 | 36899 ft | 421 kts | 181° |
| 2026-05-04 16:14 | 43.02370 | 1.91358 | 36898 ft | 422 kts | 181° |
| 2026-05-04 16:16 | 42.87726 | 1.92741 | 36883 ft | 422 kts | 181° |
| 2026-05-04 16:17 | 42.73055 | 1.94120 | 36894 ft | 424 kts | 181° |
| 2026-05-04 16:18 | 42.61373 | 1.96808 | 36890 ft | 431 kts | 171° |
| 2026-05-04 16:19 | 42.46842 | 2.02036 | 36900 ft | 433 kts | 171° |
| 2026-05-04 16:20 | 42.32289 | 2.07241 | 36900 ft | 432 kts | 171° |
| 2026-05-04 16:22 | 42.17719 | 2.12398 | 36911 ft | 434 kts | 171° |
| 2026-05-04 16:23 | 42.00195 | 2.18592 | 36921 ft | 434 kts | 171° |
| 2026-05-04 16:25 | 41.82639 | 2.24749 | 36929 ft | 435 kts | 172° |
| 2026-05-04 16:26 | 41.62108 | 2.31919 | 36946 ft | 436 kts | 171° |
| 2026-05-04 16:28 | 41.47414 | 2.37023 | 36945 ft | 437 kts | 172° |
| 2026-05-04 16:29 | 41.26739 | 2.44141 | 35147 ft | 445 kts | 171° |
| 2026-05-04 16:30 | 41.17670 | 2.47265 | 32521 ft | 452 kts | 171° |
| 2026-05-04 16:31 | 41.11583 | 2.49370 | 30776 ft | 452 kts | 170° |
| 2026-05-04 16:31 | 41.02432 | 2.52499 | 28050 ft | 455 kts | 170° |
| 2026-05-04 16:32 | 40.93128 | 2.55657 | 25443 ft | 465 kts | 170° |
| 2026-05-04 16:33 | 40.86818 | 2.57800 | 23826 ft | 469 kts | 169° |
| 2026-05-04 16:33 | 40.80510 | 2.59957 | 22042 ft | 461 kts | 169° |
| 2026-05-04 16:34 | 40.74366 | 2.62049 | 20313 ft | 452 kts | 169° |
| 2026-05-04 16:34 | 40.71332 | 2.63072 | 19486 ft | 449 kts | 169° |
| 2026-05-04 16:35 | 40.62397 | 2.66084 | 17332 ft | 433 kts | 169° |
| 2026-05-04 16:35 | 40.53794 | 2.68984 | 15357 ft | 419 kts | 169° |
| 2026-05-04 16:36 | 40.50995 | 2.69968 | 14722 ft | 416 kts | 165° |
| 2026-05-04 16:36 | 40.45816 | 2.73291 | 13468 ft | 412 kts | 154° |
| 2026-05-04 16:37 | 40.40858 | 2.76906 | 12123 ft | 402 kts | 154° |
| 2026-05-04 16:37 | 40.38427 | 2.78669 | 11475 ft | 397 kts | 155° |
| 2026-05-04 16:37 | 40.33658 | 2.82114 | 10209 ft | 386 kts | 155° |
| 2026-05-04 16:38 | 40.29787 | 2.84905 | 9124 ft | 378 kts | 154° |
| 2026-05-04 16:39 | 40.23008 | 2.89788 | 7209 ft | 363 kts | 154° |
| 2026-05-04 16:39 | 40.18496 | 2.93015 | 6944 ft | 373 kts | 154° |
| 2026-05-04 16:40 | 40.13934 | 2.96280 | 6949 ft | 374 kts | 154° |
| 2026-05-04 16:40 | 40.09371 | 2.99554 | 6952 ft | 374 kts | 154° |
| 2026-05-04 16:41 | 40.04807 | 3.02836 | 6953 ft | 374 kts | 154° |
| 2026-05-04 16:41 | 39.97922 | 3.07756 | 6955 ft | 374 kts | 154° |
| 2026-05-04 16:42 | 39.91493 | 3.13437 | 5440 ft | 369 kts | 142° |
| 2026-05-04 16:43 | 39.87732 | 3.17553 | 4944 ft | 333 kts | 142° |
| 2026-05-04 16:43 | 39.84420 | 3.21211 | 4961 ft | 292 kts | 142° |
| 2026-05-04 16:43 | 39.82930 | 3.22873 | 4962 ft | 273 kts | 142° |
| 2026-05-04 16:44 | 39.77411 | 3.29092 | 4966 ft | 261 kts | 142° |
| 2026-05-04 16:45 | 39.74670 | 3.32186 | 4965 ft | 261 kts | 142° |
| 2026-05-04 16:46 | 39.70532 | 3.36783 | 4964 ft | 259 kts | 151° |
| 2026-05-04 16:46 | 39.67170 | 3.37516 | 4971 ft | 247 kts | 198° |
| 2026-05-04 16:47 | 39.64599 | 3.34825 | 4974 ft | 243 kts | 243° |
| 2026-05-04 16:47 | 39.64371 | 3.30522 | 4976 ft | 250 kts | 287° |
| 2026-05-04 16:48 | 39.66272 | 3.24204 | 4970 ft | 251 kts | 288° |
| 2026-05-04 16:48 | 39.66906 | 3.22091 | 4968 ft | 252 kts | 288° |
| 2026-05-04 16:49 | 39.68172 | 3.17853 | 4753 ft | 250 kts | 288° |
| 2026-05-04 16:49 | 39.69399 | 3.13721 | 4485 ft | 235 kts | 288° |
| 2026-05-04 16:50 | 39.70419 | 3.09883 | 4289 ft | 212 kts | 274° |
| 2026-05-04 16:50 | 39.69796 | 3.06505 | 4211 ft | 179 kts | 238° |
| 2026-05-04 16:51 | 39.68603 | 3.03957 | 4114 ft | 159 kts | 238° |
| 2026-05-04 16:51 | 39.68039 | 3.02749 | 4066 ft | 158 kts | 238° |
| 2026-05-04 16:51 | 39.66893 | 3.00304 | 3971 ft | 159 kts | 238° |
| 2026-05-04 16:52 | 39.65744 | 2.97853 | 3758 ft | 159 kts | 238° |
| 2026-05-04 16:52 | 39.65171 | 2.96631 | 3559 ft | 159 kts | 238° |
| 2026-05-04 16:53 | 39.64021 | 2.94181 | 3164 ft | 159 kts | 238° |
| 2026-05-04 16:53 | 39.62300 | 2.90518 | 2540 ft | 159 kts | 238° |
| 2026-05-04 16:54 | 39.61723 | 2.89290 | 2334 ft | 160 kts | 237° |
| 2026-05-04 16:55 | 39.59493 | 2.84550 | 1508 ft | 141 kts | 236° |
| 2026-05-04 16:55 | 39.58484 | 2.82408 | 1155 ft | 137 kts | 236° |
| 2026-05-04 16:56 | 39.57503 | 2.80329 | 802 ft | 133 kts | 237° |
| 2026-05-04 16:56 | 39.56080 | 2.77313 | 273 ft | 130 kts | 237° |
| 2026-05-04 16:57 | 39.55610 | 2.76314 | 113 ft | 129 kts | 237° |
| 2026-05-04 16:57 | 39.54774 | 2.74542 | 30 ft | 80 kts | 238° |
| 2026-05-04 16:58 | 39.54547 | 2.73821 | 30 ft | 16 kts | 269° |
| 2026-05-04 16:58 | 39.54613 | 2.73759 | 30 ft | 14 kts | 33° |
| 2026-05-04 16:59 | 39.54707 | 2.73948 | 30 ft | 12 kts | 59° |
| 2026-05-04 17:00 | 39.55033 | 2.73963 | 30 ft | 25 kts | 329° |
| 2026-05-04 17:00 | 39.55457 | 2.73630 | 30 ft | 21 kts | 328° |
| 2026-05-04 17:01 | 39.55608 | 2.73402 | 30 ft | 17 kts | 242° |
| 2026-05-04 17:01 | 39.55473 | 2.73114 | 30 ft | 20 kts | 240° |
| 2026-05-04 17:02 | 39.55330 | 2.72947 | 30 ft | 12 kts | 237° |
| 2026-05-04 17:02 | 39.55235 | 2.72812 | 30 ft | 6 kts | 192° |
| 2026-05-04 17:03 | 39.55209 | 2.72803 | 30 ft | 0 kts | 194° |